Antlers, Colorado
Current Conditions -  °F | °C
As of 6:53 PM on Friday 24 Oct 2014 (Local Time) from KEEO Reporting Station
Clear Clear  
Wind Chill: 51°   Ceiling: Unl
Heat Index: 51°   Visibility: 10mi
Dew Point: 34°   Wind: 0mph
Humidity: 52%   Direction: NA
Pressure: 30.28"   Gusts: NA
Location:  39.7934°N, 108.135°W
Report Text: KEEO 250053Z AUTO 00000KT 10SM CLR 11/01 A3028 RMK AO2 SLP230 T01060011
Loading
Personal Weather Stations






























Interactive Weather Map
Tropical Storm Tracking
New forecast layout! Learn more

10-Day Weather Forecast

Advertisements
Track Severe Weather on mobile